sensor_id;sensor_type;location;lat;lon;timestamp;noise_LAeq;noise_LA_min;noise_LA_max;noise_LA01;noise_LA95
41518;Laerm;27249;48.094;-1.690;2023-04-09T00:02:06;50.22;41.46;59.73;;
41518;Laerm;27249;48.094;-1.690;2023-04-09T00:04:33;50.77;40.89;63.62;;
41518;Laerm;27249;48.094;-1.690;2023-04-09T00:06:58;56.11;40.53;77.74;;
41518;Laerm;27249;48.094;-1.690;2023-04-09T00:09:23;51.64;41.61;61.41;;
41518;Laerm;27249;48.094;-1.690;2023-04-09T00:11:49;51.61;41.22;62.70;;
41518;Laerm;27249;48.094;-1.690;2023-04-09T00:14:14;52.18;41.61;61.97;;
41518;Laerm;27249;48.094;-1.690;2023-04-09T00:16:39;47.29;40.43;60.29;;
41518;Laerm;27249;48.094;-1.690;2023-04-09T00:19:05;48.01;40.62;58.96;;
41518;Laerm;27249;48.094;-1.690;2023-04-09T00:21:30;53.99;40.98;65.58;;
41518;Laerm;27249;48.094;-1.690;2023-04-09T00:23:56;50.75;39.58;63.75;;
41518;Laerm;27249;48.094;-1.690;2023-04-09T00:26:21;49.53;40.62;61.15;;
41518;Laerm;27249;48.094;-1.690;2023-04-09T00:28:46;50.76;39.70;63.65;;
41518;Laerm;27249;48.094;-1.690;2023-04-09T00:31:12;49.87;40.33;60.77;;
41518;Laerm;27249;48.094;-1.690;2023-04-09T00:33:37;44.55;40.53;56.11;;
41518;Laerm;27249;48.094;-1.690;2023-04-09T00:36:02;46.10;41.03;57.62;;
41518;Laerm;27249;48.094;-1.690;2023-04-09T00:38:28;50.48;41.14;63.73;;
41518;Laerm;27249;48.094;-1.690;2023-04-09T00:40:53;51.42;40.62;62.45;;
41518;Laerm;27249;48.094;-1.690;2023-04-09T00:43:18;49.94;41.14;64.42;;
41518;Laerm;27249;48.094;-1.690;2023-04-09T00:45:43;50.95;41.89;61.22;;
41518;Laerm;27249;48.094;-1.690;2023-04-09T00:48:09;51.70;40.98;61.27;;
41518;Laerm;27249;48.094;-1.690;2023-04-09T00:50:35;48.25;41.06;58.97;;
41518;Laerm;27249;48.094;-1.690;2023-04-09T00:53:01;47.32;40.71;58.54;;
41518;Laerm;27249;48.094;-1.690;2023-04-09T00:55:26;51.17;40.80;65.18;;
41518;Laerm;27249;48.094;-1.690;2023-04-09T00:57:52;51.96;39.81;71.13;;
41518;Laerm;27249;48.094;-1.690;2023-04-09T01:00:17;49.38;40.71;62.12;;
41518;Laerm;27249;48.094;-1.690;2023-04-09T01:02:42;52.45;41.38;63.53;;
41518;Laerm;27249;48.094;-1.690;2023-04-09T01:05:08;52.02;41.06;65.62;;
41518;Laerm;27249;48.094;-1.690;2023-04-09T01:10:10;49.48;40.98;60.13;;
41518;Laerm;27249;48.094;-1.690;2023-04-09T01:12:50;50.24;39.21;62.53;;
41518;Laerm;27249;48.094;-1.690;2023-04-09T01:15:21;47.92;40.23;61.04;;
41518;Laerm;27249;48.094;-1.690;2023-04-09T01:17:50;50.34;40.33;62.69;;
41518;Laerm;27249;48.094;-1.690;2023-04-09T01:22:58;49.74;40.43;64.17;;
41518;Laerm;27249;48.094;-1.690;2023-04-09T01:31:06;51.29;40.13;62.42;;
41518;Laerm;27249;48.094;-1.690;2023-04-09T01:33:33;50.01;40.43;61.74;;
41518;Laerm;27249;48.094;-1.690;2023-04-09T01:35:59;50.55;40.53;65.97;;
41518;Laerm;27249;48.094;-1.690;2023-04-09T01:38:25;47.19;40.03;60.99;;
41518;Laerm;27249;48.094;-1.690;2023-04-09T01:40:50;50.41;39.92;64.45;;
41518;Laerm;27249;48.094;-1.690;2023-04-09T01:43:16;42.52;38.67;46.13;;
41518;Laerm;27249;48.094;-1.690;2023-04-09T01:45:42;50.76;40.23;63.16;;
41518;Laerm;27249;48.094;-1.690;2023-04-09T01:48:08;48.56;40.80;62.67;;
41518;Laerm;27249;48.094;-1.690;2023-04-09T01:50:34;49.05;40.23;60.44;;
41518;Laerm;27249;48.094;-1.690;2023-04-09T01:52:59;49.57;40.53;63.90;;
41518;Laerm;27249;48.094;-1.690;2023-04-09T01:55:25;49.54;40.33;61.75;;
41518;Laerm;27249;48.094;-1.690;2023-04-09T01:57:50;48.12;39.92;61.78;;
41518;Laerm;27249;48.094;-1.690;2023-04-09T02:00:16;51.45;40.98;66.64;;
41518;Laerm;27249;48.094;-1.690;2023-04-09T02:02:45;43.46;39.58;53.88;;
41518;Laerm;27249;48.094;-1.690;2023-04-09T02:05:13;42.95;40.03;50.49;;
41518;Laerm;27249;48.094;-1.690;2023-04-09T02:07:49;49.30;39.46;63.34;;
41518;Laerm;27249;48.094;-1.690;2023-04-09T02:10:16;48.88;39.92;61.57;;
41518;Laerm;27249;48.094;-1.690;2023-04-09T02:12:44;47.01;40.89;60.17;;
41518;Laerm;27249;48.094;-1.690;2023-04-09T02:15:11;50.17;41.61;65.18;;
41518;Laerm;27249;48.094;-1.690;2023-04-09T02:17:36;47.23;40.13;59.27;;
41518;Laerm;27249;48.094;-1.690;2023-04-09T02:20:02;46.76;40.23;57.49;;
41518;Laerm;27249;48.094;-1.690;2023-04-09T02:22:27;49.31;40.62;61.43;;
41518;Laerm;27249;48.094;-1.690;2023-04-09T02:24:52;51.45;40.13;64.94;;
41518;Laerm;27249;48.094;-1.690;2023-04-09T02:27:17;45.90;38.95;60.87;;
41518;Laerm;27249;48.094;-1.690;2023-04-09T02:29:43;51.99;39.81;63.75;;
41518;Laerm;27249;48.094;-1.690;2023-04-09T02:32:08;49.25;40.53;61.14;;
41518;Laerm;27249;48.094;-1.690;2023-04-09T02:34:33;47.59;40.03;61.30;;
41518;Laerm;27249;48.094;-1.690;2023-04-09T02:36:58;47.78;40.03;60.58;;
41518;Laerm;27249;48.094;-1.690;2023-04-09T02:39:24;47.89;40.62;60.94;;
41518;Laerm;27249;48.094;-1.690;2023-04-09T02:41:49;50.07;40.89;62.68;;
41518;Laerm;27249;48.094;-1.690;2023-04-09T02:44:14;47.62;40.43;58.29;;
41518;Laerm;27249;48.094;-1.690;2023-04-09T02:46:40;48.06;40.43;66.86;;
41518;Laerm;27249;48.094;-1.690;2023-04-09T02:49:05;42.57;40.13;45.66;;
41518;Laerm;27249;48.094;-1.690;2023-04-09T02:51:32;45.65;39.81;56.92;;
41518;Laerm;27249;48.094;-1.690;2023-04-09T02:53:58;49.90;39.58;68.35;;
41518;Laerm;27249;48.094;-1.690;2023-04-09T02:56:23;52.76;40.53;64.01;;
41518;Laerm;27249;48.094;-1.690;2023-04-09T02:58:49;49.72;40.13;62.67;;
41518;Laerm;27249;48.094;-1.690;2023-04-09T03:01:17;51.39;40.43;62.75;;
41518;Laerm;27249;48.094;-1.690;2023-04-09T03:03:43;45.85;40.33;57.62;;
41518;Laerm;27249;48.094;-1.690;2023-04-09T03:06:08;49.37;40.71;64.10;;
41518;Laerm;27249;48.094;-1.690;2023-04-09T03:08:33;53.41;40.62;65.50;;
41518;Laerm;27249;48.094;-1.690;2023-04-09T03:10:59;44.87;39.21;60.31;;
41518;Laerm;27249;48.094;-1.690;2023-04-09T03:13:26;48.14;40.80;60.67;;
41518;Laerm;27249;48.094;-1.690;2023-04-09T03:15:51;48.75;40.53;60.17;;
41518;Laerm;27249;48.094;-1.690;2023-04-09T03:18:19;50.51;41.06;61.56;;
41518;Laerm;27249;48.094;-1.690;2023-04-09T03:20:45;46.67;40.03;58.52;;
41518;Laerm;27249;48.094;-1.690;2023-04-09T03:23:10;49.82;40.23;61.59;;
41518;Laerm;27249;48.094;-1.690;2023-04-09T03:25:35;50.14;39.70;60.51;;
41518;Laerm;27249;48.094;-1.690;2023-04-09T03:28:01;46.88;40.43;60.67;;
41518;Laerm;27249;48.094;-1.690;2023-04-09T03:30:27;47.09;40.62;59.42;;
41518;Laerm;27249;48.094;-1.690;2023-04-09T03:32:52;47.52;40.23;58.03;;
41518;Laerm;27249;48.094;-1.690;2023-04-09T03:35:17;45.29;39.35;65.33;;
41518;Laerm;27249;48.094;-1.690;2023-04-09T03:37:42;48.90;39.81;61.85;;
41518;Laerm;27249;48.094;-1.690;2023-04-09T03:40:08;47.39;39.34;58.88;;
41518;Laerm;27249;48.094;-1.690;2023-04-09T03:42:33;45.56;39.08;56.49;;
41518;Laerm;27249;48.094;-1.690;2023-04-09T03:44:59;45.03;40.13;57.06;;
41518;Laerm;27249;48.094;-1.690;2023-04-09T03:47:24;47.86;39.92;60.08;;
41518;Laerm;27249;48.094;-1.690;2023-04-09T03:49:49;47.50;39.34;57.98;;
41518;Laerm;27249;48.094;-1.690;2023-04-09T03:52:14;48.00;40.53;58.21;;
41518;Laerm;27249;48.094;-1.690;2023-04-09T03:54:40;47.86;40.43;59.85;;
41518;Laerm;27249;48.094;-1.690;2023-04-09T03:57:07;45.96;40.80;58.38;;
41518;Laerm;27249;48.094;-1.690;2023-04-09T03:59:32;43.79;40.53;56.82;;
41518;Laerm;27249;48.094;-1.690;2023-04-09T04:01:57;50.34;40.33;61.09;;
41518;Laerm;27249;48.094;-1.690;2023-04-09T04:04:23;50.93;40.43;61.73;;
41518;Laerm;27249;48.094;-1.690;2023-04-09T04:06:48;47.72;40.53;60.96;;
41518;Laerm;27249;48.094;-1.690;2023-04-09T04:09:13;50.96;40.33;63.69;;
41518;Laerm;27249;48.094;-1.690;2023-04-09T04:11:38;49.66;40.53;60.57;;
41518;Laerm;27249;48.094;-1.690;2023-04-09T04:14:03;54.51;40.71;66.96;;
41518;Laerm;27249;48.094;-1.690;2023-04-09T04:16:29;50.72;40.53;66.90;;
41518;Laerm;27249;48.094;-1.690;2023-04-09T04:18:54;49.07;40.80;62.53;;
41518;Laerm;27249;48.094;-1.690;2023-04-09T04:21:19;50.57;40.53;63.13;;
41518;Laerm;27249;48.094;-1.690;2023-04-09T04:23:45;47.39;40.80;63.16;;
41518;Laerm;27249;48.094;-1.690;2023-04-09T04:26:10;52.61;41.06;63.25;;
41518;Laerm;27249;48.094;-1.690;2023-04-09T04:28:39;52.75;40.71;65.48;;
41518;Laerm;27249;48.094;-1.690;2023-04-09T04:31:08;51.98;41.94;63.16;;
41518;Laerm;27249;48.094;-1.690;2023-04-09T04:33:33;50.97;41.53;64.40;;
41518;Laerm;27249;48.094;-1.690;2023-04-09T04:38:30;50.36;41.30;59.23;;
41518;Laerm;27249;48.094;-1.690;2023-04-09T04:40:57;52.10;40.63;63.93;;
41518;Laerm;27249;48.094;-1.690;2023-04-09T04:43:22;52.14;41.22;61.68;;
41518;Laerm;27249;48.094;-1.690;2023-04-09T04:45:47;52.65;41.96;67.18;;
41518;Laerm;27249;48.094;-1.690;2023-04-09T04:48:13;52.12;41.75;66.39;;
41518;Laerm;27249;48.094;-1.690;2023-04-09T04:50:38;49.67;41.53;62.54;;
41518;Laerm;27249;48.094;-1.690;2023-04-09T04:53:03;48.80;41.53;62.59;;
41518;Laerm;27249;48.094;-1.690;2023-04-09T04:55:29;52.68;41.96;65.28;;
41518;Laerm;27249;48.094;-1.690;2023-04-09T04:57:54;51.71;41.96;66.69;;
41518;Laerm;27249;48.094;-1.690;2023-04-09T05:00:19;48.98;41.82;61.87;;
41518;Laerm;27249;48.094;-1.690;2023-04-09T05:02:45;53.14;41.96;61.55;;
41518;Laerm;27249;48.094;-1.690;2023-04-09T05:05:10;51.97;41.82;61.65;;
41518;Laerm;27249;48.094;-1.690;2023-04-09T05:07:36;53.10;42.88;66.01;;
41518;Laerm;27249;48.094;-1.690;2023-04-09T05:10:01;51.20;42.29;60.58;;
41518;Laerm;27249;48.094;-1.690;2023-04-09T05:12:30;49.59;41.75;60.44;;
41518;Laerm;27249;48.094;-1.690;2023-04-09T05:14:55;48.99;42.09;59.71;;
41518;Laerm;27249;48.094;-1.690;2023-04-09T05:17:22;51.00;41.46;65.66;;
41518;Laerm;27249;48.094;-1.690;2023-04-09T05:19:51;49.07;41.61;64.51;;
41518;Laerm;27249;48.094;-1.690;2023-04-09T05:22:17;52.23;40.71;62.74;;
41518;Laerm;27249;48.094;-1.690;2023-04-09T05:24:42;50.90;41.38;59.93;;
41518;Laerm;27249;48.094;-1.690;2023-04-09T05:27:07;47.84;41.61;59.84;;
41518;Laerm;27249;48.094;-1.690;2023-04-09T05:29:32;50.40;41.46;63.27;;
41518;Laerm;27249;48.094;-1.690;2023-04-09T05:31:57;48.94;41.53;63.00;;
41518;Laerm;27249;48.094;-1.690;2023-04-09T05:34:23;50.50;42.09;61.41;;
41518;Laerm;27249;48.094;-1.690;2023-04-09T05:36:48;51.34;42.22;63.04;;
41518;Laerm;27249;48.094;-1.690;2023-04-09T05:39:13;49.19;41.82;58.13;;
41518;Laerm;27249;48.094;-1.690;2023-04-09T05:41:39;48.89;41.53;58.71;;
41518;Laerm;27249;48.094;-1.690;2023-04-09T05:44:05;50.18;41.14;62.74;;
41518;Laerm;27249;48.094;-1.690;2023-04-09T05:46:31;52.42;41.89;69.05;;
41518;Laerm;27249;48.094;-1.690;2023-04-09T05:48:56;49.95;41.61;65.65;;
41518;Laerm;27249;48.094;-1.690;2023-04-09T05:51:21;52.78;42.65;66.76;;
41518;Laerm;27249;48.094;-1.690;2023-04-09T05:53:46;50.67;41.53;64.55;;
41518;Laerm;27249;48.094;-1.690;2023-04-09T05:56:14;53.72;41.46;67.63;;
41518;Laerm;27249;48.094;-1.690;2023-04-09T05:58:40;48.74;41.30;65.68;;
41518;Laerm;27249;48.094;-1.690;2023-04-09T06:01:05;48.84;42.03;60.05;;
41518;Laerm;27249;48.094;-1.690;2023-04-09T06:03:31;48.87;42.59;58.58;;
41518;Laerm;27249;48.094;-1.690;2023-04-09T06:05:56;51.24;42.03;63.25;;
41518;Laerm;27249;48.094;-1.690;2023-04-09T06:08:21;50.84;41.96;65.83;;
41518;Laerm;27249;48.094;-1.690;2023-04-09T06:10:46;49.07;41.82;62.69;;
41518;Laerm;27249;48.094;-1.690;2023-04-09T06:13:11;53.17;43.58;65.39;;
41518;Laerm;27249;48.094;-1.690;2023-04-09T06:15:37;49.94;41.38;59.99;;
41518;Laerm;27249;48.094;-1.690;2023-04-09T06:18:03;49.72;41.68;60.79;;
41518;Laerm;27249;48.094;-1.690;2023-04-09T06:20:28;51.51;41.53;66.66;;
41518;Laerm;27249;48.094;-1.690;2023-04-09T06:22:53;49.94;41.75;63.13;;
41518;Laerm;27249;48.094;-1.690;2023-04-09T06:25:18;52.20;43.77;60.40;;
41518;Laerm;27249;48.094;-1.690;2023-04-09T06:27:44;54.21;44.11;63.70;;
41518;Laerm;27249;48.094;-1.690;2023-04-09T06:30:09;50.92;42.09;62.25;;
41518;Laerm;27249;48.094;-1.690;2023-04-09T06:32:34;50.36;41.68;64.51;;
41518;Laerm;27249;48.094;-1.690;2023-04-09T06:35:00;49.75;42.09;63.79;;
41518;Laerm;27249;48.094;-1.690;2023-04-09T06:37:25;50.15;41.89;60.20;;
41518;Laerm;27249;48.094;-1.690;2023-04-09T06:39:51;50.76;42.36;62.27;;
41518;Laerm;27249;48.094;-1.690;2023-04-09T06:42:16;51.65;41.96;62.50;;
41518;Laerm;27249;48.094;-1.690;2023-04-09T06:44:41;50.54;42.22;61.14;;
41518;Laerm;27249;48.094;-1.690;2023-04-09T06:47:06;49.88;42.47;62.16;;
41518;Laerm;27249;48.094;-1.690;2023-04-09T06:49:32;50.96;42.76;64.58;;
41518;Laerm;27249;48.094;-1.690;2023-04-09T06:51:58;51.70;42.82;64.05;;
41518;Laerm;27249;48.094;-1.690;2023-04-09T06:54:23;51.40;42.59;60.97;;
41518;Laerm;27249;48.094;-1.690;2023-04-09T06:56:48;53.20;41.75;61.97;;
41518;Laerm;27249;48.094;-1.690;2023-04-09T06:59:13;53.03;42.59;69.17;;
41518;Laerm;27249;48.094;-1.690;2023-04-09T07:01:40;51.57;42.88;65.50;;
41518;Laerm;27249;48.094;-1.690;2023-04-09T07:04:05;52.89;43.63;60.60;;
41518;Laerm;27249;48.094;-1.690;2023-04-09T07:06:31;52.19;42.47;72.93;;
41518;Laerm;27249;48.094;-1.690;2023-04-09T07:08:56;52.21;43.54;59.94;;
41518;Laerm;27249;48.094;-1.690;2023-04-09T07:11:21;51.96;42.82;62.90;;
41518;Laerm;27249;48.094;-1.690;2023-04-09T07:13:46;52.07;42.53;62.43;;
41518;Laerm;27249;48.094;-1.690;2023-04-09T07:16:12;53.62;43.34;65.94;;
41518;Laerm;27249;48.094;-1.690;2023-04-09T07:18:37;54.54;42.59;72.52;;
41518;Laerm;27249;48.094;-1.690;2023-04-09T07:21:02;54.19;41.75;63.92;;
41518;Laerm;27249;48.094;-1.690;2023-04-09T07:23:27;59.45;43.39;85.62;;
41518;Laerm;27249;48.094;-1.690;2023-04-09T07:25:53;52.18;43.39;61.95;;
41518;Laerm;27249;48.094;-1.690;2023-04-09T07:28:18;52.09;43.29;59.68;;
41518;Laerm;27249;48.094;-1.690;2023-04-09T07:30:43;53.08;44.11;61.78;;
41518;Laerm;27249;48.094;-1.690;2023-04-09T07:33:10;51.35;42.59;61.95;;
41518;Laerm;27249;48.094;-1.690;2023-04-09T07:35:35;52.94;44.65;60.34;;
41518;Laerm;27249;48.094;-1.690;2023-04-09T07:38:00;54.18;46.57;62.11;;
41518;Laerm;27249;48.094;-1.690;2023-04-09T07:40:26;55.38;44.15;69.51;;
41518;Laerm;27249;48.094;-1.690;2023-04-09T07:42:51;51.62;44.35;61.82;;
41518;Laerm;27249;48.094;-1.690;2023-04-09T07:45:18;50.68;42.53;63.04;;
41518;Laerm;27249;48.094;-1.690;2023-04-09T07:47:43;52.89;44.76;60.45;;
41518;Laerm;27249;48.094;-1.690;2023-04-09T07:50:08;54.17;43.29;62.13;;
41518;Laerm;27249;48.094;-1.690;2023-04-09T07:52:34;52.68;43.68;60.73;;
41518;Laerm;27249;48.094;-1.690;2023-04-09T07:54:59;54.06;44.15;63.88;;
41518;Laerm;27249;48.094;-1.690;2023-04-09T07:57:25;53.89;45.01;64.50;;
41518;Laerm;27249;48.094;-1.690;2023-04-09T07:59:51;52.44;44.52;60.97;;
41518;Laerm;27249;48.094;-1.690;2023-04-09T08:02:17;56.85;47.70;67.33;;
41518;Laerm;27249;48.094;-1.690;2023-04-09T08:04:42;54.22;43.58;61.10;;
41518;Laerm;27249;48.094;-1.690;2023-04-09T08:07:07;52.77;43.63;63.48;;
41518;Laerm;27249;48.094;-1.690;2023-04-09T08:09:33;53.48;43.49;62.25;;
41518;Laerm;27249;48.094;-1.690;2023-04-09T08:11:58;52.74;43.86;69.29;;
41518;Laerm;27249;48.094;-1.690;2023-04-09T08:14:23;53.39;44.94;64.10;;
41518;Laerm;27249;48.094;-1.690;2023-04-09T08:16:48;53.43;44.11;59.52;;
41518;Laerm;27249;48.094;-1.690;2023-04-09T08:19:14;63.80;44.51;77.49;;
41518;Laerm;27249;48.094;-1.690;2023-04-09T08:21:40;66.65;58.21;74.91;;
41518;Laerm;27249;48.094;-1.690;2023-04-09T08:24:11;63.95;49.75;73.50;;
41518;Laerm;27249;48.094;-1.690;2023-04-09T08:26:37;55.07;44.97;64.31;;
41518;Laerm;27249;48.094;-1.690;2023-04-09T08:29:02;51.92;43.49;60.90;;
41518;Laerm;27249;48.094;-1.690;2023-04-09T08:31:28;53.27;44.97;62.45;;
41518;Laerm;27249;48.094;-1.690;2023-04-09T08:33:53;52.71;44.51;62.25;;
41518;Laerm;27249;48.094;-1.690;2023-04-09T08:36:19;52.68;44.65;60.42;;
41518;Laerm;27249;48.094;-1.690;2023-04-09T08:38:44;54.15;43.90;61.19;;
41518;Laerm;27249;48.094;-1.690;2023-04-09T08:41:21;53.93;45.91;60.96;;
41518;Laerm;27249;48.094;-1.690;2023-04-09T08:43:47;54.56;45.51;66.44;;
41518;Laerm;27249;48.094;-1.690;2023-04-09T08:46:13;53.87;45.07;64.34;;
41518;Laerm;27249;48.094;-1.690;2023-04-09T08:48:40;54.72;46.97;62.80;;
41518;Laerm;27249;48.094;-1.690;2023-04-09T08:51:06;54.13;44.35;63.67;;
41518;Laerm;27249;48.094;-1.690;2023-04-09T08:53:32;55.23;46.02;67.06;;
41518;Laerm;27249;48.094;-1.690;2023-04-09T08:55:57;54.50;44.62;64.61;;
41518;Laerm;27249;48.094;-1.690;2023-04-09T08:58:23;53.88;44.73;62.07;;
41518;Laerm;27249;48.094;-1.690;2023-04-09T09:00:49;54.67;45.20;62.12;;
41518;Laerm;27249;48.094;-1.690;2023-04-09T09:03:14;54.71;48.05;62.81;;
41518;Laerm;27249;48.094;-1.690;2023-04-09T09:05:43;55.03;49.58;62.18;;
41518;Laerm;27249;48.094;-1.690;2023-04-09T09:08:09;55.37;48.21;66.16;;
41518;Laerm;27249;48.094;-1.690;2023-04-09T09:10:41;56.57;48.37;63.71;;
41518;Laerm;27249;48.094;-1.690;2023-04-09T09:15:41;53.22;43.72;62.78;;
41518;Laerm;27249;48.094;-1.690;2023-04-09T09:18:08;54.82;48.02;62.23;;
41518;Laerm;27249;48.094;-1.690;2023-04-09T09:20:33;54.82;47.20;65.29;;
41518;Laerm;27249;48.094;-1.690;2023-04-09T09:22:58;55.13;45.33;66.21;;
41518;Laerm;27249;48.094;-1.690;2023-04-09T09:25:24;52.93;42.41;60.63;;
41518;Laerm;27249;48.094;-1.690;2023-04-09T09:27:50;55.42;45.48;63.39;;
41518;Laerm;27249;48.094;-1.690;2023-04-09T09:30:22;54.74;44.76;66.14;;
41518;Laerm;27249;48.094;-1.690;2023-04-09T09:32:51;53.74;44.54;63.56;;
41518;Laerm;27249;48.094;-1.690;2023-04-09T09:35:17;55.30;44.51;64.09;;
41518;Laerm;27249;48.094;-1.690;2023-04-09T09:37:43;54.09;46.69;61.51;;
41518;Laerm;27249;48.094;-1.690;2023-04-09T09:40:08;54.05;47.38;67.09;;
41518;Laerm;27249;48.094;-1.690;2023-04-09T09:42:33;53.59;46.15;60.30;;
41518;Laerm;27249;48.094;-1.690;2023-04-09T09:44:58;53.58;44.35;63.70;;
41518;Laerm;27249;48.094;-1.690;2023-04-09T09:47:24;54.89;43.39;61.98;;
41518;Laerm;27249;48.094;-1.690;2023-04-09T09:49:53;54.57;46.73;65.64;;
41518;Laerm;27249;48.094;-1.690;2023-04-09T09:52:21;54.82;46.20;61.92;;
41518;Laerm;27249;48.094;-1.690;2023-04-09T09:54:50;53.48;45.83;59.62;;
41518;Laerm;27249;48.094;-1.690;2023-04-09T09:57:17;54.98;46.28;62.08;;
41518;Laerm;27249;48.094;-1.690;2023-04-09T09:59:46;55.80;49.36;64.30;;
41518;Laerm;27249;48.094;-1.690;2023-04-09T10:02:18;55.97;45.14;70.48;;
41518;Laerm;27249;48.094;-1.690;2023-04-09T10:04:44;56.36;43.72;69.76;;
41518;Laerm;27249;48.094;-1.690;2023-04-09T10:07:10;66.14;56.10;74.79;;
41518;Laerm;27249;48.094;-1.690;2023-04-09T10:09:37;65.99;52.89;74.86;;
41518;Laerm;27249;48.094;-1.690;2023-04-09T10:12:05;53.03;42.35;62.75;;
41518;Laerm;27249;48.094;-1.690;2023-04-09T10:14:31;53.63;45.91;60.10;;
41518;Laerm;27249;48.094;-1.690;2023-04-09T10:16:57;54.40;46.28;60.98;;
41518;Laerm;27249;48.094;-1.690;2023-04-09T10:19:22;55.06;46.28;62.07;;
41518;Laerm;27249;48.094;-1.690;2023-04-09T10:21:52;53.87;44.69;61.55;;
41518;Laerm;27249;48.094;-1.690;2023-04-09T10:24:20;55.47;44.47;65.60;;
41518;Laerm;27249;48.094;-1.690;2023-04-09T10:26:46;55.55;44.83;64.18;;
41518;Laerm;27249;48.094;-1.690;2023-04-09T10:29:12;55.43;46.55;62.16;;
41518;Laerm;27249;48.094;-1.690;2023-04-09T10:32:03;54.66;46.40;61.70;;
41518;Laerm;27249;48.094;-1.690;2023-04-09T10:34:31;54.23;43.86;65.39;;
41518;Laerm;27249;48.094;-1.690;2023-04-09T10:36:59;54.73;44.35;63.33;;
41518;Laerm;27249;48.094;-1.690;2023-04-09T10:39:25;54.93;43.94;63.85;;
41518;Laerm;27249;48.094;-1.690;2023-04-09T10:41:50;54.28;42.98;62.85;;
41518;Laerm;27249;48.094;-1.690;2023-04-09T10:44:21;64.66;47.77;73.48;;
41518;Laerm;27249;48.094;-1.690;2023-04-09T10:46:46;61.99;45.11;73.83;;
41518;Laerm;27249;48.094;-1.690;2023-04-09T10:51:38;54.09;45.04;61.57;;
41518;Laerm;27249;48.094;-1.690;2023-04-09T10:54:04;53.70;43.90;64.48;;
41518;Laerm;27249;48.094;-1.690;2023-04-09T10:56:30;54.34;42.98;64.61;;
41518;Laerm;27249;48.094;-1.690;2023-04-09T10:58:55;57.21;44.08;74.85;;
41518;Laerm;27249;48.094;-1.690;2023-04-09T11:01:22;68.95;49.62;84.39;;
41518;Laerm;27249;48.094;-1.690;2023-04-09T11:04:03;55.32;45.77;66.29;;
41518;Laerm;27249;48.094;-1.690;2023-04-09T11:06:31;52.93;43.86;62.00;;
41518;Laerm;27249;48.094;-1.690;2023-04-09T11:09:00;53.61;42.35;70.25;;
41518;Laerm;27249;48.094;-1.690;2023-04-09T11:11:26;52.46;42.88;61.96;;
41518;Laerm;27249;48.094;-1.690;2023-04-09T11:13:56;54.70;44.07;63.38;;
41518;Laerm;27249;48.094;-1.690;2023-04-09T11:16:22;52.63;44.23;61.46;;
41518;Laerm;27249;48.094;-1.690;2023-04-09T11:18:47;54.94;44.90;65.15;;
41518;Laerm;27249;48.094;-1.690;2023-04-09T11:21:12;54.00;43.49;63.88;;
41518;Laerm;27249;48.094;-1.690;2023-04-09T11:23:38;52.71;43.77;60.32;;
41518;Laerm;27249;48.094;-1.690;2023-04-09T11:26:03;52.73;42.47;62.72;;
41518;Laerm;27249;48.094;-1.690;2023-04-09T11:28:29;52.49;42.09;62.29;;
41518;Laerm;27249;48.094;-1.690;2023-04-09T11:30:54;53.87;42.59;67.69;;
41518;Laerm;27249;48.094;-1.690;2023-04-09T11:33:19;53.27;42.35;63.01;;
41518;Laerm;27249;48.094;-1.690;2023-04-09T11:35:45;54.70;43.04;62.92;;
41518;Laerm;27249;48.094;-1.690;2023-04-09T11:38:11;62.25;44.54;75.22;;
41518;Laerm;27249;48.094;-1.690;2023-04-09T11:40:41;51.46;43.89;61.36;;
41518;Laerm;27249;48.094;-1.690;2023-04-09T11:43:12;52.29;42.47;61.85;;
41518;Laerm;27249;48.094;-1.690;2023-04-09T11:45:39;50.15;42.76;58.62;;
41518;Laerm;27249;48.094;-1.690;2023-04-09T11:48:05;54.06;44.76;66.34;;
41518;Laerm;27249;48.094;-1.690;2023-04-09T11:50:30;64.57;42.76;86.38;;
41518;Laerm;27249;48.094;-1.690;2023-04-09T11:52:56;54.43;45.77;63.94;;
41518;Laerm;27249;48.094;-1.690;2023-04-09T11:55:22;64.23;44.03;82.79;;
41518;Laerm;27249;48.094;-1.690;2023-04-09T11:57:48;55.16;47.00;63.14;;
41518;Laerm;27249;48.094;-1.690;2023-04-09T12:00:15;56.87;44.15;70.07;;
41518;Laerm;27249;48.094;-1.690;2023-04-09T12:02:42;54.18;44.97;64.40;;
41518;Laerm;27249;48.094;-1.690;2023-04-09T12:05:09;53.08;44.73;60.98;;
41518;Laerm;27249;48.094;-1.690;2023-04-09T12:07:34;53.04;43.77;63.08;;
41518;Laerm;27249;48.094;-1.690;2023-04-09T12:10:08;50.18;42.69;64.37;;
41518;Laerm;27249;48.094;-1.690;2023-04-09T12:12:40;53.32;42.76;62.57;;
41518;Laerm;27249;48.094;-1.690;2023-04-09T12:15:09;53.15;44.54;63.94;;
41518;Laerm;27249;48.094;-1.690;2023-04-09T12:17:34;51.89;42.59;63.46;;
41518;Laerm;27249;48.094;-1.690;2023-04-09T12:20:00;52.26;42.76;63.54;;
41518;Laerm;27249;48.094;-1.690;2023-04-09T12:22:26;51.74;42.03;63.12;;
41518;Laerm;27249;48.094;-1.690;2023-04-09T12:24:51;52.11;43.54;60.38;;
41518;Laerm;27249;48.094;-1.690;2023-04-09T12:27:16;53.37;43.44;63.35;;
41518;Laerm;27249;48.094;-1.690;2023-04-09T12:29:42;53.82;44.43;65.34;;
41518;Laerm;27249;48.094;-1.690;2023-04-09T12:32:07;53.52;44.87;60.48;;
41518;Laerm;27249;48.094;-1.690;2023-04-09T12:34:32;54.07;43.39;61.23;;
41518;Laerm;27249;48.094;-1.690;2023-04-09T12:36:58;51.52;43.19;59.26;;
41518;Laerm;27249;48.094;-1.690;2023-04-09T12:39:23;51.63;43.29;60.07;;
41518;Laerm;27249;48.094;-1.690;2023-04-09T12:41:48;50.27;43.49;58.90;;
41518;Laerm;27249;48.094;-1.690;2023-04-09T12:44:14;54.55;44.27;64.13;;
41518;Laerm;27249;48.094;-1.690;2023-04-09T12:46:39;55.06;42.98;71.11;;
41518;Laerm;27249;48.094;-1.690;2023-04-09T12:49:05;55.70;42.47;72.14;;
41518;Laerm;27249;48.094;-1.690;2023-04-09T12:51:30;53.49;44.07;62.05;;
41518;Laerm;27249;48.094;-1.690;2023-04-09T12:53:55;53.18;42.47;65.93;;
41518;Laerm;27249;48.094;-1.690;2023-04-09T12:56:21;56.80;44.69;71.05;;
41518;Laerm;27249;48.094;-1.690;2023-04-09T12:58:46;56.47;44.04;77.45;;
41518;Laerm;27249;48.094;-1.690;2023-04-09T13:01:11;53.15;43.99;66.86;;
41518;Laerm;27249;48.094;-1.690;2023-04-09T13:03:37;53.64;44.58;60.66;;
41518;Laerm;27249;48.094;-1.690;2023-04-09T13:06:05;54.83;43.14;64.62;;
41518;Laerm;27249;48.094;-1.690;2023-04-09T13:08:30;61.94;43.04;83.64;;
41518;Laerm;27249;48.094;-1.690;2023-04-09T13:10:55;54.02;43.29;61.94;;
41518;Laerm;27249;48.094;-1.690;2023-04-09T13:13:21;52.14;43.04;65.32;;
41518;Laerm;27249;48.094;-1.690;2023-04-09T13:15:46;53.34;43.68;63.09;;
41518;Laerm;27249;48.094;-1.690;2023-04-09T13:18:12;54.18;44.35;62.03;;
41518;Laerm;27249;48.094;-1.690;2023-04-09T13:20:37;64.39;42.59;80.43;;
41518;Laerm;27249;48.094;-1.690;2023-04-09T13:23:03;54.80;43.99;61.78;;
41518;Laerm;27249;48.094;-1.690;2023-04-09T13:25:28;54.31;45.48;62.27;;
41518;Laerm;27249;48.094;-1.690;2023-04-09T13:27:53;54.14;42.16;63.06;;
41518;Laerm;27249;48.094;-1.690;2023-04-09T13:30:20;53.52;44.97;61.03;;
41518;Laerm;27249;48.094;-1.690;2023-04-09T13:32:45;53.06;42.41;66.44;;
41518;Laerm;27249;48.094;-1.690;2023-04-09T13:35:10;58.52;45.80;79.09;;
41518;Laerm;27249;48.094;-1.690;2023-04-09T13:37:36;54.84;44.83;66.97;;
41518;Laerm;27249;48.094;-1.690;2023-04-09T13:40:01;55.94;47.36;66.38;;
41518;Laerm;27249;48.094;-1.690;2023-04-09T13:42:26;53.80;42.59;63.90;;
41518;Laerm;27249;48.094;-1.690;2023-04-09T13:44:51;51.93;42.35;67.36;;